Time;durP1;ratioP1;P1;durP2;ratioP2;P2;SDS_P1;SDS_P2;PMS_P1;PMS_P2;Temp;Humidity;BMP_temperature;BMP_pressure;BME280_temperature;BME280_humidity;BME280_pressure;Samples;Min_cycle;Max_cycle;Signal;HPM_P1;HPM_P2
2022/10/24 00:02:04;;;;;;;11.10;3.40;;;;;;;;;;5171469;27;20438;-70
2022/10/24 00:04:31;;;;;;;11.65;3.38;;;;;;;;;;5171841;27;20138;-68
2022/10/24 00:06:57;;;;;;;12.65;4.05;;;;;;;;;;5171432;27;20470;-67
2022/10/24 00:09:23;;;;;;;13.52;4.13;;;;;;;;;;5171605;27;20042;-66
2022/10/24 00:11:49;;;;;;;11.48;3.58;;;;;;;;;;5171671;27;20047;-68
2022/10/24 00:14:15;;;;;;;11.90;3.65;;;;;;;;;;5171853;27;20219;-68
2022/10/24 00:16:41;;;;;;;10.65;3.70;;;;;;;;;;5171545;27;20118;-69
2022/10/24 00:19:07;;;;;;;11.93;3.42;;;;;;;;;;5171628;27;20034;-67
2022/10/24 00:21:33;;;;;;;11.13;3.60;;;;;;;;;;5172181;27;20046;-72
2022/10/24 00:23:59;;;;;;;10.27;3.47;;;;;;;;;;5171385;27;20370;-68
2022/10/24 00:26:25;;;;;;;16.17;3.90;;;;;;;;;;5171227;27;20090;-67
2022/10/24 00:28:51;;;;;;;14.07;3.38;;;;;;;;;;5171159;27;20050;-67
2022/10/24 00:31:19;;;;;;;11.57;3.30;;;;;;;;;;5171516;27;20151;-68
2022/10/24 00:33:45;;;;;;;14.98;3.67;;;;;;;;;;5171809;27;20161;-69
2022/10/24 00:36:11;;;;;;;;;;;;;;;;;;5171978;27;20042;-66
2022/10/24 00:38:37;;;;;;;14.48;3.67;;;;;;;;;;5171547;27;20380;-67
2022/10/24 00:41:04;;;;;;;11.23;3.17;;;;;;;;;;5171334;27;20079;-66
2022/10/24 00:43:30;;;;;;;12.73;3.38;;;;;;;;;;5171414;27;20050;-68
2022/10/24 00:45:56;;;;;;;11.85;3.20;;;;;;;;;;5171499;27;20035;-71
2022/10/24 00:48:38;;;;;;;15.10;4.03;;;;;;;;;;5171404;27;20461;-68
2022/10/24 00:51:06;;;;;;;11.35;3.40;;;;;;;;;;5171476;27;20046;-68
2022/10/24 00:53:33;;;;;;;11.15;3.10;;;;;;;;;;5172212;27;20065;-69
2022/10/24 00:56:00;;;;;;;12.13;3.10;;;;;;;;;;5156391;27;20327;-69
2022/10/24 00:58:28;;;;;;;14.65;3.30;;;;;;;;;;5175339;27;20046;-69
2022/10/24 01:00:55;;;;;;;16.58;3.40;;;;;;;;;;5175248;27;20073;-67
2022/10/24 01:03:21;;;;;;;15.13;3.50;;;;;;;;;;5175395;27;20153;-70
2022/10/24 01:05:50;;;;;;;12.18;3.22;;;;;;;;;;5175018;27;20081;-69
2022/10/24 01:08:24;;;;;;;10.75;2.78;;;;;;;;;;5156295;27;20058;-69
2022/10/24 01:10:50;;;;;;;11.27;3.10;;;;;;;;;;5175269;27;20129;-68
2022/10/24 01:13:22;;;;;;;12.27;2.90;;;;;;;;;;5175077;27;20043;-68
2022/10/24 01:15:48;;;;;;;9.93;2.90;;;;;;;;;;5174791;27;20193;-69
2022/10/24 01:18:23;;;;;;;14.07;3.10;;;;;;;;;;5174973;27;20047;-68
2022/10/24 01:21:11;;;;;;;9.20;2.83;;;;;;;;;;5175158;27;20132;-70
2022/10/24 01:23:56;;;;;;;12.57;3.13;;;;;;;;;;5174404;27;20469;-72
2022/10/24 01:26:31;;;;;;;14.18;3.13;;;;;;;;;;5174490;27;20053;-66
2022/10/24 01:29:15;;;;;;;10.57;2.92;;;;;;;;;;5173837;27;20414;-69
2022/10/24 01:31:47;;;;;;;11.18;3.22;;;;;;;;;;5174657;27;20130;-75
2022/10/24 01:34:18;;;;;;;10.30;3.03;;;;;;;;;;5155706;27;20077;-68
2022/10/24 01:36:49;;;;;;;11.43;3.08;;;;;;;;;;5174379;27;20046;-70
2022/10/24 01:39:18;;;;;;;11.63;3.42;;;;;;;;;;5174522;27;20042;-68
2022/10/24 01:41:44;;;;;;;10.90;3.25;;;;;;;;;;5174367;27;20050;-70
2022/10/24 01:44:20;;;;;;;9.70;2.90;;;;;;;;;;5174271;27;20469;-67
2022/10/24 01:46:50;;;;;;;10.90;3.57;;;;;;;;;;5174307;27;20065;-71
2022/10/24 01:49:18;;;;;;;10.50;3.35;;;;;;;;;;5174181;27;20446;-66
2022/10/24 01:51:45;;;;;;;11.10;3.38;;;;;;;;;;5174332;27;20214;-72
2022/10/24 01:54:13;;;;;;;12.43;3.90;;;;;;;;;;5174258;27;20138;-69
2022/10/24 01:56:39;;;;;;;11.77;3.55;;;;;;;;;;5173896;27;20082;-69
2022/10/24 01:59:06;;;;;;;14.52;3.55;;;;;;;;;;5174030;27;20134;-67
2022/10/24 02:01:33;;;;;;;12.40;3.78;;;;;;;;;;5174127;27;20157;-70
2022/10/24 02:03:59;;;;;;;;;;;;;;;;;;5155586;27;20090;-70
2022/10/24 02:06:27;;;;;;;14.75;4.25;;;;;;;;;;5173123;27;19967;-68
2022/10/24 02:08:57;;;;;;;14.57;3.97;;;;;;;;;;5154069;27;20151;-69
2022/10/24 02:11:23;;;;;;;10.82;3.50;;;;;;;;;;5173294;27;20487;-68
2022/10/24 02:13:52;;;;;;;12.95;3.97;;;;;;;;;;5173762;27;20068;-69
2022/10/24 02:16:19;;;;;;;13.38;3.85;;;;;;;;;;5173701;27;20342;-68
2022/10/24 02:18:49;;;;;;;15.30;4.25;;;;;;;;;;5173225;27;20346;-69
2022/10/24 02:21:19;;;;;;;12.60;3.67;;;;;;;;;;5173266;27;20546;-69
2022/10/24 02:23:50;;;;;;;10.48;3.60;;;;;;;;;;5173601;27;20134;-70
2022/10/24 02:26:28;;;;;;;16.27;3.90;;;;;;;;;;5173733;27;20334;-68
2022/10/24 02:28:57;;;;;;;14.93;4.10;;;;;;;;;;5173134;27;20073;-70
2022/10/24 02:31:26;;;;;;;13.32;3.80;;;;;;;;;;5173298;27;20116;-68
2022/10/24 02:33:53;;;;;;;13.50;4.05;;;;;;;;;;5173373;27;20190;-70
2022/10/24 02:36:22;;;;;;;13.90;4.03;;;;;;;;;;5173392;27;20042;-68
2022/10/24 02:38:50;;;;;;;15.40;3.88;;;;;;;;;;5173244;27;20070;-68
2022/10/24 02:41:20;;;;;;;10.73;3.80;;;;;;;;;;5173085;27;20046;-67
2022/10/24 02:43:46;;;;;;;18.60;4.07;;;;;;;;;;5173255;27;20346;-67
2022/10/24 02:46:13;;;;;;;16.67;4.25;;;;;;;;;;5172940;27;20042;-68
2022/10/24 02:48:41;;;;;;;15.30;4.40;;;;;;;;;;5173017;27;20045;-67
2022/10/24 02:51:08;;;;;;;14.60;4.15;;;;;;;;;;5172813;27;20046;-68
2022/10/24 02:53:35;;;;;;;17.05;3.75;;;;;;;;;;5173080;27;20092;-69
2022/10/24 02:56:01;;;;;;;12.35;3.95;;;;;;;;;;5172991;27;20070;-71
2022/10/24 02:58:27;;;;;;;16.80;3.90;;;;;;;;;;5153887;27;20083;-70
2022/10/24 03:00:53;;;;;;;15.85;4.22;;;;;;;;;;5153882;27;20054;-70
2022/10/24 03:03:21;;;;;;;16.35;4.00;;;;;;;;;;5172614;27;20046;-69
2022/10/24 03:05:47;;;;;;;14.57;4.13;;;;;;;;;;5172099;27;20050;-69
2022/10/24 03:08:13;;;;;;;11.68;3.85;;;;;;;;;;5172014;27;20457;-65
2022/10/24 03:10:39;;;;;;;;;;;;;;;;;;5173034;27;20083;-67
2022/10/24 03:13:05;;;;;;;13.10;4.22;;;;;;;;;;5172117;27;19995;-67
2022/10/24 03:15:32;;;;;;;12.05;3.95;;;;;;;;;;5153522;27;20042;-71
2022/10/24 03:17:58;;;;;;;15.38;3.63;;;;;;;;;;5172227;27;20043;-68
2022/10/24 03:20:24;;;;;;;16.13;4.03;;;;;;;;;;5172230;27;20393;-69
2022/10/24 03:22:50;;;;;;;;;;;;;;;;;;5172802;27;20137;-65
2022/10/24 03:25:16;;;;;;;15.25;4.50;;;;;;;;;;5172229;27;19977;-70
2022/10/24 03:27:42;;;;;;;14.60;4.05;;;;;;;;;;5172028;27;20094;-67
2022/10/24 03:30:09;;;;;;;15.02;3.80;;;;;;;;;;5171668;27;20093;-69
2022/10/24 03:32:34;;;;;;;;;;;;;;;;;;5172487;27;20430;-68
2022/10/24 03:35:01;;;;;;;13.10;3.80;;;;;;;;;;5172035;27;19978;-66
2022/10/24 03:37:28;;;;;;;13.07;4.18;;;;;;;;;;5172302;27;20048;-66
2022/10/24 03:39:54;;;;;;;14.65;4.32;;;;;;;;;;5171830;27;20379;-68
2022/10/24 03:42:20;;;;;;;12.13;3.50;;;;;;;;;;5171957;27;20207;-68
2022/10/24 03:44:46;;;;;;;;;;;;;;;;;;5172551;27;20049;-67
2022/10/24 03:47:12;;;;;;;17.27;3.88;;;;;;;;;;5171930;27;19918;-67
2022/10/24 03:49:38;;;;;;;13.48;3.58;;;;;;;;;;5172284;27;20038;-66
2022/10/24 03:52:05;;;;;;;15.73;3.83;;;;;;;;;;5172336;27;20063;-66
2022/10/24 03:54:31;;;;;;;13.85;3.90;;;;;;;;;;5171898;27;20081;-67
2022/10/24 03:56:57;;;;;;;13.38;4.05;;;;;;;;;;5172020;27;20068;-68
2022/10/24 03:59:23;;;;;;;12.98;3.72;;;;;;;;;;5171828;27;20049;-73
2022/10/24 04:01:49;;;;;;;10.93;3.72;;;;;;;;;;5171730;27;20068;-69
2022/10/24 04:04:15;;;;;;;11.88;3.53;;;;;;;;;;5171746;27;20106;-67
2022/10/24 04:06:41;;;;;;;12.90;3.55;;;;;;;;;;5171779;27;20046;-67
2022/10/24 04:09:07;;;;;;;16.00;4.00;;;;;;;;;;5171708;27;20097;-69
2022/10/24 04:11:33;;;;;;;19.95;4.32;;;;;;;;;;5171694;27;20038;-68
2022/10/24 04:13:59;;;;;;;12.75;3.85;;;;;;;;;;5153050;27;20042;-65
2022/10/24 04:16:25;;;;;;;;;;;;;;;;;;5171914;27;20047;-67
2022/10/24 04:18:52;;;;;;;13.57;4.10;;;;;;;;;;5171836;27;19920;-70
2022/10/24 04:21:18;;;;;;;13.40;3.97;;;;;;;;;;5171803;27;20043;-66
2022/10/24 04:23:44;;;;;;;16.85;4.20;;;;;;;;;;5171623;27;20133;-69
2022/10/24 04:26:11;;;;;;;16.33;5.13;;;;;;;;;;5171679;27;20315;-72
2022/10/24 04:28:38;;;;;;;15.27;3.95;;;;;;;;;;5172285;27;20125;-68
2022/10/24 04:31:04;;;;;;;15.07;4.40;;;;;;;;;;5175756;27;20062;-73
2022/10/24 04:33:30;;;;;;;13.93;4.45;;;;;;;;;;5175269;27;20093;-68
2022/10/24 04:35:56;;;;;;;13.23;3.80;;;;;;;;;;5175578;27;20122;-67
2022/10/24 04:38:22;;;;;;;15.55;4.38;;;;;;;;;;5139496;27;20098;-67
2022/10/24 04:40:49;;;;;;;13.00;3.90;;;;;;;;;;5175480;27;20049;-68
2022/10/24 04:43:15;;;;;;;15.07;4.22;;;;;;;;;;5175365;27;20061;-69
2022/10/24 04:45:41;;;;;;;;;;;;;;;;;;5175591;27;20125;-68
2022/10/24 04:48:07;;;;;;;11.88;3.97;;;;;;;;;;5175178;27;20006;-71
2022/10/24 04:50:33;;;;;;;15.60;4.22;;;;;;;;;;5175481;27;20050;-68
2022/10/24 04:53:00;;;;;;;13.13;3.92;;;;;;;;;;5175287;27;20567;-68
2022/10/24 04:55:26;;;;;;;14.25;4.20;;;;;;;;;;5175416;27;20050;-72
2022/10/24 04:57:52;;;;;;;13.20;3.95;;;;;;;;;;5175073;27;20153;-69
2022/10/24 05:00:19;;;;;;;12.50;3.50;;;;;;;;;;5156285;27;20124;-66
2022/10/24 05:02:45;;;;;;;13.52;3.95;;;;;;;;;;5175415;27;20060;-66
2022/10/24 05:05:11;;;;;;;16.73;3.40;;;;;;;;;;5174903;27;20472;-69
2022/10/24 05:07:37;;;;;;;11.05;3.92;;;;;;;;;;5175086;27;20050;-71
2022/10/24 05:10:04;;;;;;;16.10;4.00;;;;;;;;;;5175030;27;20115;-67
2022/10/24 05:12:30;;;;;;;16.20;3.70;;;;;;;;;;5175045;27;20060;-72
2022/10/24 05:14:56;;;;;;;11.70;3.67;;;;;;;;;;5175211;27;20077;-70
2022/10/24 05:17:22;;;;;;;15.80;3.83;;;;;;;;;;5175054;27;20130;-69
2022/10/24 05:19:48;;;;;;;15.32;4.43;;;;;;;;;;5175081;27;20057;-70
2022/10/24 05:22:14;;;;;;;12.20;3.50;;;;;;;;;;5174964;27;20103;-69
2022/10/24 05:24:40;;;;;;;11.80;3.75;;;;;;;;;;5174821;27;20096;-69
2022/10/24 05:27:06;;;;;;;10.82;3.30;;;;;;;;;;5174713;27;20146;-65
2022/10/24 05:29:33;;;;;;;20.20;4.05;;;;;;;;;;5155119;27;20219;-67
2022/10/24 05:31:59;;;;;;;15.90;4.00;;;;;;;;;;5174084;27;20189;-72
2022/10/24 05:34:26;;;;;;;15.13;3.83;;;;;;;;;;5174299;27;20042;-66
2022/10/24 05:36:52;;;;;;;11.10;3.58;;;;;;;;;;5174378;27;20046;-70
2022/10/24 05:39:18;;;;;;;13.65;3.58;;;;;;;;;;5174063;27;20338;-69
2022/10/24 05:41:44;;;;;;;16.45;4.07;;;;;;;;;;5173005;27;20101;-71
2022/10/24 05:44:14;;;;;;;13.50;3.55;;;;;;;;;;5154967;27;20056;-69
2022/10/24 05:46:40;;;;;;;17.85;3.65;;;;;;;;;;5173780;27;20470;-68
2022/10/24 05:49:06;;;;;;;17.45;3.97;;;;;;;;;;5173792;27;20038;-70
2022/10/24 05:51:33;;;;;;;16.35;3.70;;;;;;;;;;5155140;27;20551;-77
2022/10/24 05:53:59;;;;;;;15.73;3.80;;;;;;;;;;5174709;27;20085;-66
2022/10/24 05:56:25;;;;;;;16.48;4.75;;;;;;;;;;5173888;27;20085;-70
2022/10/24 05:58:51;;;;;;;10.45;3.25;;;;;;;;;;5173857;27;20062;-68
2022/10/24 06:01:17;;;;;;;17.80;3.63;;;;;;;;;;5173721;27;20054;-69
2022/10/24 06:03:43;;;;;;;14.50;3.55;;;;;;;;;;5154876;27;20046;-68
2022/10/24 06:06:09;;;;;;;14.43;3.63;;;;;;;;;;5154938;27;20042;-66
2022/10/24 06:08:35;;;;;;;;;;;;;;;;;;5174089;27;20058;-66
2022/10/24 06:11:02;;;;;;;15.40;3.20;;;;;;;;;;5173647;27;19963;-62
2022/10/24 06:13:28;;;;;;;13.48;3.50;;;;;;;;;;5173742;27;20140;-65
2022/10/24 06:15:54;;;;;;;;;;;;;;;;;;5155376;27;20350;-66
2022/10/24 06:18:20;;;;;;;14.35;3.22;;;;;;;;;;5173193;27;19971;-66
2022/10/24 06:20:46;;;;;;;15.02;3.45;;;;;;;;;;5174154;27;20052;-67
2022/10/24 06:23:12;;;;;;;10.25;3.10;;;;;;;;;;5173337;27;20093;-65
2022/10/24 06:25:42;;;;;;;12.05;3.67;;;;;;;;;;5172678;27;20472;-63
2022/10/24 06:28:08;;;;;;;13.85;3.25;;;;;;;;;;5154059;27;20109;-67
2022/10/24 06:30:35;;;;;;;12.05;3.33;;;;;;;;;;5173422;27;20137;-67
2022/10/24 06:33:02;;;;;;;15.60;3.47;;;;;;;;;;5173559;27;20073;-68
2022/10/24 06:35:28;;;;;;;10.98;3.30;;;;;;;;;;5173236;27;20053;-67
2022/10/24 06:37:54;;;;;;;11.88;3.40;;;;;;;;;;5154560;27;20085;-71
2022/10/24 06:40:20;;;;;;;12.80;3.40;;;;;;;;;;5173335;27;20042;-68
2022/10/24 06:42:46;;;;;;;13.35;3.10;;;;;;;;;;5173123;27;20098;-71
2022/10/24 06:45:12;;;;;;;12.25;2.90;;;;;;;;;;5172890;27;20081;-67
2022/10/24 06:47:39;;;;;;;11.32;3.30;;;;;;;;;;5172822;27;20079;-67
2022/10/24 06:50:05;;;;;;;11.23;2.95;;;;;;;;;;5172703;27;20497;-66
2022/10/24 06:52:32;;;;;;;14.55;3.50;;;;;;;;;;5172659;27;20121;-68
2022/10/24 06:54:58;;;;;;;12.93;3.03;;;;;;;;;;5172827;27;20396;-64
2022/10/24 06:57:24;;;;;;;14.02;3.10;;;;;;;;;;5172851;27;20048;-66
2022/10/24 06:59:50;;;;;;;11.75;2.78;;;;;;;;;;5172986;27;20049;-66
2022/10/24 07:02:16;;;;;;;13.13;2.95;;;;;;;;;;5173122;27;20125;-69
2022/10/24 07:04:42;;;;;;;15.80;3.33;;;;;;;;;;5172903;27;20052;-68
2022/10/24 07:07:13;;;;;;;11.27;2.92;;;;;;;;;;5153829;27;20056;-73
2022/10/24 07:09:39;;;;;;;14.95;3.42;;;;;;;;;;5154048;27;20123;-70
2022/10/24 07:12:06;;;;;;;12.95;3.13;;;;;;;;;;5173022;27;20323;-82
2022/10/24 07:14:32;;;;;;;12.82;2.92;;;;;;;;;;5172552;27;20076;-68
2022/10/24 07:16:58;;;;;;;13.13;3.10;;;;;;;;;;5172853;27;20041;-67
2022/10/24 07:19:24;;;;;;;11.63;3.15;;;;;;;;;;5172657;27;20122;-69
2022/10/24 07:21:50;;;;;;;14.63;3.22;;;;;;;;;;5172569;27;20132;-70
2022/10/24 07:24:16;;;;;;;15.35;3.22;;;;;;;;;;5153696;27;20042;-69
2022/10/24 07:26:42;;;;;;;13.73;3.03;;;;;;;;;;5153457;27;20049;-65
2022/10/24 07:29:08;;;;;;;12.60;3.40;;;;;;;;;;5171982;27;20077;-65
2022/10/24 07:31:35;;;;;;;12.40;3.20;;;;;;;;;;5150881;27;20043;-70
2022/10/24 07:34:03;;;;;;;16.55;3.40;;;;;;;;;;5151508;27;20168;-66
2022/10/24 07:36:32;;;;;;;13.90;2.90;;;;;;;;;;5151106;27;20046;-69
2022/10/24 07:38:58;;;;;;;11.32;2.95;;;;;;;;;;5151284;27;20039;-72
2022/10/24 07:41:25;;;;;;;10.38;2.70;;;;;;;;;;5151310;27;20039;-72
2022/10/24 07:43:51;;;;;;;13.20;2.80;;;;;;;;;;5151336;27;20084;-63
2022/10/24 07:46:17;;;;;;;;;;;;;;;;;;5151449;27;20439;-65
2022/10/24 07:48:43;;;;;;;31.85;5.63;;;;;;;;;;5150645;27;19938;-70
2022/10/24 07:51:11;;;;;;;13.35;3.17;;;;;;;;;;5151062;27;20043;-66
2022/10/24 07:53:37;;;;;;;16.33;3.10;;;;;;;;;;5151306;27;20042;-68
2022/10/24 07:56:08;;;;;;;12.18;2.70;;;;;;;;;;5151311;27;20467;-73
2022/10/24 07:58:34;;;;;;;12.93;3.17;;;;;;;;;;5151089;27;20039;-68
2022/10/24 08:01:05;;;;;;;13.73;3.30;;;;;;;;;;5151139;27;20042;-71
2022/10/24 08:03:31;;;;;;;19.30;2.90;;;;;;;;;;5150285;27;20055;-73
2022/10/24 08:05:57;;;;;;;9.95;2.85;;;;;;;;;;5151053;27;20490;-77
2022/10/24 08:08:23;;;;;;;12.85;2.75;;;;;;;;;;5150971;27;20137;-65
2022/10/24 08:10:49;;;;;;;12.13;2.90;;;;;;;;;;5150835;27;20061;-66
2022/10/24 08:13:15;;;;;;;13.00;3.00;;;;;;;;;;5150732;27;20046;-64
2022/10/24 08:15:41;;;;;;;14.48;3.30;;;;;;;;;;5151148;27;20125;-67
2022/10/24 08:18:07;;;;;;;15.35;2.85;;;;;;;;;;5150858;27;20051;-67
2022/10/24 08:20:33;;;;;;;12.98;2.92;;;;;;;;;;5150982;27;20134;-67
2022/10/24 08:22:59;;;;;;;;;;;;;;;;;;5150862;27;20089;-64
2022/10/24 08:25:25;;;;;;;14.00;2.85;;;;;;;;;;5150665;27;19966;-70
2022/10/24 08:27:51;;;;;;;14.60;3.25;;;;;;;;;;5131607;27;20502;-66
2022/10/24 08:30:19;;;;;;;43.30;5.45;;;;;;;;;;5150904;27;20145;-69
2022/10/24 08:32:45;;;;;;;11.90;2.58;;;;;;;;;;5150628;27;20153;-74
2022/10/24 08:35:15;;;;;;;15.85;4.50;;;;;;;;;;5150357;27;20473;-74
2022/10/24 08:37:41;;;;;;;17.92;3.10;;;;;;;;;;5150789;27;20066;-73
2022/10/24 08:40:11;;;;;;;16.33;3.53;;;;;;;;;;5150806;27;20035;-69
2022/10/24 08:42:38;;;;;;;14.80;2.80;;;;;;;;;;5150115;27;20076;-63
2022/10/24 08:45:09;;;;;;;12.38;2.90;;;;;;;;;;5150132;27;20110;-68
2022/10/24 08:47:39;;;;;;;13.57;2.85;;;;;;;;;;5149877;27;20039;-74
2022/10/24 08:50:11;;;;;;;12.93;2.85;;;;;;;;;;5149881;27;20039;-67
2022/10/24 08:52:37;;;;;;;13.43;2.85;;;;;;;;;;5149567;27;20051;-71
2022/10/24 08:55:10;;;;;;;13.10;2.80;;;;;;;;;;5150046;27;20043;-66
2022/10/24 08:57:37;;;;;;;12.57;2.70;;;;;;;;;;5114105;27;20142;-72
2022/10/24 09:00:16;;;;;;;9.95;2.35;;;;;;;;;;5149999;27;20042;-73
2022/10/24 09:02:43;;;;;;;14.15;3.58;;;;;;;;;;5149720;27;20107;-75
2022/10/24 09:05:29;;;;;;;17.90;2.80;;;;;;;;;;5150471;27;20059;-71
2022/10/24 09:08:00;;;;;;;15.80;3.20;;;;;;;;;;5149989;27;20055;-77
2022/10/24 09:10:34;;;;;;;24.25;3.30;;;;;;;;;;5131505;27;20038;-75
2022/10/24 09:13:00;;;;;;;15.43;2.97;;;;;;;;;;5149482;27;20390;-75
2022/10/24 09:15:30;;;;;;;19.10;5.70;;;;;;;;;;5151787;27;20043;-72
2022/10/24 09:17:57;;;;;;;18.17;2.92;;;;;;;;;;5153923;27;20080;-66
2022/10/24 09:20:32;;;;;;;13.43;3.17;;;;;;;;;;5152404;27;20550;-76
2022/10/24 09:23:00;;;;;;;19.33;3.42;;;;;;;;;;5152789;27;20121;-72
2022/10/24 09:25:31;;;;;;;19.27;3.60;;;;;;;;;;5152761;27;20165;-74
2022/10/24 09:27:58;;;;;;;15.68;2.90;;;;;;;;;;5133996;27;20038;-65
2022/10/24 09:30:26;;;;;;;25.67;3.20;;;;;;;;;;5152483;27;20162;-69
2022/10/24 09:32:53;;;;;;;21.95;2.97;;;;;;;;;;5135380;27;20043;-70
2022/10/24 09:35:21;;;;;;;16.08;3.33;;;;;;;;;;5152965;27;20087;-74
2022/10/24 09:37:48;;;;;;;13.57;2.83;;;;;;;;;;5153062;27;20046;-78
2022/10/24 09:40:17;;;;;;;12.80;3.33;;;;;;;;;;5152540;27;20046;-68
2022/10/24 09:42:48;;;;;;;15.77;2.95;;;;;;;;;;5151867;27;20043;-70
2022/10/24 09:45:33;;;;;;;12.13;2.47;;;;;;;;;;5152965;27;20106;-75
2022/10/24 09:48:01;;;;;;;14.48;3.00;;;;;;;;;;5152046;27;20096;-70
2022/10/24 09:50:27;;;;;;;20.05;3.25;;;;;;;;;;5151810;27;20047;-67
2022/10/24 09:52:57;;;;;;;14.35;2.90;;;;;;;;;;5152653;27;20038;-75
2022/10/24 09:55:24;;;;;;;13.55;2.63;;;;;;;;;;5152607;27;20079;-71
2022/10/24 09:57:56;;;;;;;15.90;3.25;;;;;;;;;;5152778;27;20113;-71
2022/10/24 10:00:24;;;;;;;14.95;2.90;;;;;;;;;;5133867;27;20053;-75
2022/10/24 10:02:58;;;;;;;12.13;3.08;;;;;;;;;;5152506;27;20149;-78
2022/10/24 10:05:24;;;;;;;13.82;2.45;;;;;;;;;;5152689;27;20122;-68
2022/10/24 10:07:50;;;;;;;;;;;;;;;;;;5152854;27;20050;-76
2022/10/24 10:10:27;;;;;;;13.77;2.70;;;;;;;;;;5152321;27;19922;-67
2022/10/24 10:13:02;;;;;;;14.20;2.97;;;;;;;;;;5152587;27;20316;-65
2022/10/24 10:15:34;;;;;;;14.98;2.85;;;;;;;;;;5116983;27;20069;-64
2022/10/24 10:18:02;;;;;;;12.77;3.03;;;;;;;;;;5152691;27;20391;-74
2022/10/24 10:20:28;;;;;;;14.50;2.85;;;;;;;;;;5153011;27;20082;-70
2022/10/24 10:22:54;;;;;;;14.13;3.15;;;;;;;;;;5152571;27;20110;-65
2022/10/24 10:25:31;;;;;;;23.33;3.97;;;;;;;;;;5152815;27;20083;-67
2022/10/24 10:27:57;;;;;;;16.65;3.10;;;;;;;;;;5151595;27;20055;-67
2022/10/24 10:30:24;;;;;;;14.93;2.90;;;;;;;;;;5133104;27;20195;-63
2022/10/24 10:32:56;;;;;;;13.63;2.78;;;;;;;;;;5133830;27;20463;-63
2022/10/24 10:35:26;;;;;;;16.10;2.90;;;;;;;;;;5153225;27;20050;-66
2022/10/24 10:38:12;;;;;;;16.20;3.42;;;;;;;;;;5152847;27;20484;-67
2022/10/24 10:40:43;;;;;;;14.77;3.10;;;;;;;;;;5134435;27;20094;-64
2022/10/24 10:43:28;;;;;;;11.93;2.60;;;;;;;;;;5152243;27;20400;-67
2022/10/24 10:45:57;;;;;;;13.27;2.97;;;;;;;;;;5151905;27;20130;-69
2022/10/24 10:48:23;;;;;;;18.83;3.60;;;;;;;;;;5132893;27;20097;-82
2022/10/24 10:50:54;;;;;;;17.55;3.80;;;;;;;;;;5151952;27;20074;-69
2022/10/24 10:53:23;;;;;;;13.68;2.67;;;;;;;;;;5151787;27;20070;-63
2022/10/24 10:55:57;;;;;;;15.10;2.92;;;;;;;;;;5151689;27;20150;-69
2022/10/24 10:58:23;;;;;;;13.13;3.10;;;;;;;;;;5151586;27;20350;-65
2022/10/24 11:01:11;;;;;;;17.63;3.50;;;;;;;;;;5151544;27;20061;-68
2022/10/24 11:03:37;;;;;;;;;;;;;;;;;;5151931;27;20046;-65
2022/10/24 11:06:03;;;;;;;11.52;3.00;;;;;;;;;;5151349;27;19980;-67
2022/10/24 11:08:29;;;;;;;15.27;2.90;;;;;;;;;;5132136;27;20070;-66
2022/10/24 11:11:02;;;;;;;15.50;2.85;;;;;;;;;;5151169;27;20439;-67
2022/10/24 11:13:36;;;;;;;15.80;3.75;;;;;;;;;;5132105;27;20062;-64
2022/10/24 11:16:04;;;;;;;13.52;2.80;;;;;;;;;;5151047;27;20184;-78
2022/10/24 11:18:33;;;;;;;13.35;2.88;;;;;;;;;;5150818;27;20427;-67
2022/10/24 11:21:02;;;;;;;13.90;2.83;;;;;;;;;;5151233;27;20081;-67
2022/10/24 11:23:35;;;;;;;17.70;2.72;;;;;;;;;;5151366;27;20042;-69
2022/10/24 11:26:09;;;;;;;15.13;3.10;;;;;;;;;;5151036;27;20301;-64
2022/10/24 11:28:46;;;;;;;18.42;2.97;;;;;;;;;;5150664;27;20039;-68
2022/10/24 11:31:23;;;;;;;15.23;2.90;;;;;;;;;;5151328;27;20070;-65
2022/10/24 11:33:49;;;;;;;14.82;3.13;;;;;;;;;;5151181;27;20061;-64
2022/10/24 11:36:18;;;;;;;16.10;2.65;;;;;;;;;;5150885;27;20094;-64
2022/10/24 11:39:06;;;;;;;13.07;2.33;;;;;;;;;;5150528;27;20135;-67
2022/10/24 11:41:41;;;;;;;15.95;3.13;;;;;;;;;;5151071;27;20163;-63
2022/10/24 11:44:42;;;;;;;16.15;3.00;;;;;;;;;;5150884;27;20147;-65
2022/10/24 11:47:17;;;;;;;12.23;3.28;;;;;;;;;;5046226;28;20053;-63
2022/10/24 11:49:47;;;;;;;13.93;2.97;;;;;;;;;;5135756;27;20129;-66
2022/10/24 11:52:20;;;;;;;12.48;2.65;;;;;;;;;;5132041;27;20042;-64
2022/10/24 11:54:52;;;;;;;13.95;2.70;;;;;;;;;;5150937;27;20058;-68
2022/10/24 11:57:22;;;;;;;42.95;4.88;;;;;;;;;;5151080;27;20129;-63
2022/10/24 11:59:50;;;;;;;12.73;2.60;;;;;;;;;;5151107;27;20067;-64
2022/10/24 12:02:31;;;;;;;14.52;2.60;;;;;;;;;;5151132;27;20038;-66
2022/10/24 12:05:00;;;;;;;14.05;2.80;;;;;;;;;;5150753;27;20039;-71
2022/10/24 12:07:45;;;;;;;14.38;2.72;;;;;;;;;;5150482;27;20527;-64
2022/10/24 12:10:20;;;;;;;34.38;5.07;;;;;;;;;;5150674;27;20073;-64
2022/10/24 12:12:55;;;;;;;18.27;3.20;;;;;;;;;;5150425;27;20039;-65
2022/10/24 12:15:47;;;;;;;16.75;3.08;;;;;;;;;;5150926;27;20484;-65
2022/10/24 12:18:19;;;;;;;16.80;3.00;;;;;;;;;;5111018;27;20046;-66
2022/10/24 12:20:50;;;;;;;12.95;2.33;;;;;;;;;;5131988;27;20516;-62
2022/10/24 12:23:28;;;;;;;19.38;2.90;;;;;;;;;;5150243;27;20486;-65
2022/10/24 12:26:06;;;;;;;13.18;2.75;;;;;;;;;;5150589;27;20411;-62
2022/10/24 12:28:32;;;;;;;11.75;2.92;;;;;;;;;;5150264;27;20338;-64
2022/10/24 12:31:13;;;;;;;11.68;2.40;;;;;;;;;;5150605;27;20070;-63
2022/10/24 12:33:40;;;;;;;15.18;2.50;;;;;;;;;;5150693;27;20047;-67
2022/10/24 12:36:06;;;;;;;17.70;2.55;;;;;;;;;;5150550;27;20046;-62
2022/10/24 12:38:32;;;;;;;;;;;;;;;;;;5150368;27;20426;-63
2022/10/24 12:41:05;;;;;;;14.43;2.65;;;;;;;;;;5150189;27;19918;-65
2022/10/24 12:43:38;;;;;;;16.48;3.35;;;;;;;;;;5150286;27;20047;-66
2022/10/24 12:46:13;;;;;;;11.25;3.40;;;;;;;;;;5150420;27;20091;-71
2022/10/24 12:48:41;;;;;;;14.90;2.58;;;;;;;;;;5150237;27;20107;-64
2022/10/24 12:51:27;;;;;;;18.50;3.08;;;;;;;;;;5153680;27;20119;-64
2022/10/24 12:53:59;;;;;;;19.20;3.40;;;;;;;;;;5154502;27;20042;-61
2022/10/24 12:56:25;;;;;;;13.13;2.75;;;;;;;;;;5135266;27;20450;-67
2022/10/24 12:59:01;;;;;;;15.27;2.38;;;;;;;;;;5153859;27;20062;-63
2022/10/24 13:01:33;;;;;;;10.88;3.03;;;;;;;;;;5154267;27;20390;-63
2022/10/24 13:04:17;;;;;;;14.52;2.90;;;;;;;;;;5154113;27;20134;-62
2022/10/24 13:07:03;;;;;;;12.95;2.30;;;;;;;;;;5153874;27;20058;-61
2022/10/24 13:09:44;;;;;;;10.85;2.45;;;;;;;;;;5153855;27;20039;-61
2022/10/24 13:12:29;;;;;;;12.68;2.97;;;;;;;;;;5153918;27;20046;-64
2022/10/24 13:15:03;;;;;;;11.50;2.55;;;;;;;;;;5153822;27;20085;-63
2022/10/24 13:17:37;;;;;;;13.05;2.50;;;;;;;;;;5153956;27;20054;-62
2022/10/24 13:20:05;;;;;;;10.90;2.88;;;;;;;;;;5153399;27;20038;-62
2022/10/24 13:22:34;;;;;;;12.00;2.40;;;;;;;;;;5153348;27;20154;-62
2022/10/24 13:25:16;;;;;;;15.25;2.85;;;;;;;;;;5153555;27;20046;-63
2022/10/24 13:27:43;;;;;;;15.77;2.83;;;;;;;;;;5153632;27;20064;-61
2022/10/24 13:30:38;;;;;;;11.60;2.50;;;;;;;;;;5153558;27;20141;-69
2022/10/24 13:33:22;;;;;;;16.73;3.65;;;;;;;;;;5131044;27;20129;-62
2022/10/24 13:35:48;;;;;;;14.27;2.90;;;;;;;;;;5153472;27;20057;-62
2022/10/24 13:38:15;;;;;;;16.85;3.17;;;;;;;;;;5153436;27;20043;-63
2022/10/24 13:40:42;;;;;;;10.85;2.47;;;;;;;;;;5153485;27;20142;-62
2022/10/24 13:43:18;;;;;;;32.30;11.77;;;;;;;;;;5153605;27;20061;-68
2022/10/24 13:45:46;;;;;;;12.43;2.78;;;;;;;;;;5153792;27;20103;-65
2022/10/24 13:48:24;;;;;;;13.77;2.85;;;;;;;;;;5153072;27;20103;-63
2022/10/24 13:50:59;;;;;;;10.45;2.40;;;;;;;;;;5153396;27;20082;-62
2022/10/24 13:53:27;;;;;;;15.43;2.67;;;;;;;;;;5153121;27;20060;-63
2022/10/24 13:55:53;;;;;;;10.88;2.78;;;;;;;;;;5153262;27;20390;-66
2022/10/24 13:58:24;;;;;;;12.63;2.55;;;;;;;;;;5153003;27;20103;-62
2022/10/24 14:00:56;;;;;;;11.95;2.30;;;;;;;;;;5152146;27;20046;-62
2022/10/24 14:03:24;;;;;;;17.40;3.05;;;;;;;;;;5152674;27;20413;-63
2022/10/24 14:05:54;;;;;;;15.02;2.72;;;;;;;;;;5152907;27;20486;-63
2022/10/24 14:08:20;;;;;;;16.13;3.10;;;;;;;;;;5152518;27;20107;-65
2022/10/24 14:10:46;;;;;;;12.82;2.35;;;;;;;;;;5152705;27;20043;-64
2022/10/24 14:13:16;;;;;;;14.52;2.50;;;;;;;;;;5134188;27;20058;-70
2022/10/24 14:15:46;;;;;;;13.85;3.15;;;;;;;;;;5152510;27;20173;-62
2022/10/24 14:18:13;;;;;;;12.63;2.20;;;;;;;;;;5152656;27;20598;-67
2022/10/24 14:20:40;;;;;;;11.07;2.72;;;;;;;;;;5152306;27;20138;-62
2022/10/24 14:23:23;;;;;;;10.90;2.80;;;;;;;;;;5152337;27;20083;-69
2022/10/24 14:26:00;;;;;;;11.43;2.40;;;;;;;;;;5152280;27;20134;-62
2022/10/24 14:28:29;;;;;;;10.25;2.65;;;;;;;;;;5152112;27;20069;-64
2022/10/24 14:31:06;;;;;;;11.60;2.20;;;;;;;;;;5152464;27;20150;-66
2022/10/24 14:33:49;;;;;;;13.30;2.60;;;;;;;;;;5152127;27;20093;-65
2022/10/24 14:36:16;;;;;;;11.57;2.20;;;;;;;;;;5152471;27;20119;-66
2022/10/24 14:38:42;;;;;;;8.65;2.40;;;;;;;;;;5133535;27;20114;-65
2022/10/24 14:41:09;;;;;;;10.10;2.20;;;;;;;;;;5152074;27;20161;-69
2022/10/24 14:43:38;;;;;;;9.35;2.40;;;;;;;;;;5152286;27;20115;-65
2022/10/24 14:46:06;;;;;;;11.23;2.50;;;;;;;;;;5152227;27;20050;-64
2022/10/24 14:48:32;;;;;;;15.20;2.55;;;;;;;;;;5151872;27;20038;-64